createdAt,value
2018-06-13T00:00:17.463Z,23.40
2018-06-13T00:02:46.675Z,24.13
2018-06-13T00:05:16.806Z,24.93
2018-06-13T00:07:46.372Z,24.10
2018-06-13T00:10:15.556Z,24.53
2018-06-13T00:12:45.156Z,25.20
2018-06-13T00:15:14.331Z,24.40
2018-06-13T00:17:43.915Z,26.23
2018-06-13T00:20:13.119Z,25.93
2018-06-13T00:22:42.762Z,25.53
2018-06-13T00:25:12.260Z,26.67
2018-06-13T00:27:41.474Z,26.83
2018-06-13T00:30:10.667Z,25.57
2018-06-13T00:32:39.889Z,27.70
2018-06-13T00:35:09.103Z,26.63
2018-06-13T00:37:38.358Z,24.83
2018-06-13T00:40:22.171Z,26.53
2018-06-13T00:43:02.912Z,25.67
2018-06-13T00:45:33.098Z,26.77
2018-06-13T00:48:02.298Z,26.87
2018-06-13T00:50:31.484Z,27.77
2018-06-13T00:53:00.686Z,27.10
2018-06-13T00:55:29.987Z,26.43
2018-06-13T00:57:59.240Z,27.93
2018-06-13T01:00:28.442Z,27.27
2018-06-13T01:02:57.982Z,27.13
2018-06-13T01:05:27.610Z,25.93
2018-06-13T01:07:56.799Z,26.73
2018-06-13T01:10:26.347Z,26.10
2018-06-13T01:12:55.610Z,25.70
2018-06-13T01:15:25.099Z,25.43
2018-06-13T01:17:54.605Z,24.97
2018-06-13T01:20:23.791Z,25.97
2018-06-13T01:22:53.267Z,25.67
2018-06-13T01:25:23.079Z,25.97
2018-06-13T01:27:52.259Z,25.90
2018-06-13T01:30:22.030Z,28.00
2018-06-13T01:32:51.203Z,28.50
2018-06-13T01:35:20.427Z,28.27
2018-06-13T01:37:49.651Z,27.20
2018-06-13T01:40:19.568Z,26.83
2018-06-13T01:42:48.730Z,28.30
2018-06-13T01:45:17.942Z,27.50
2018-06-13T01:47:47.478Z,26.30
2018-06-13T01:50:16.710Z,27.03
2018-06-13T01:52:46.654Z,26.53
2018-06-13T01:55:15.850Z,25.40
2018-06-13T01:57:45.263Z,24.30
2018-06-13T02:00:14.800Z,25.33
2018-06-13T02:02:44.210Z,24.37
2018-06-13T02:05:16.026Z,25.20
2018-06-13T02:07:45.610Z,25.20
2018-06-13T02:10:14.855Z,23.17
2018-06-13T02:12:44.048Z,23.60
2018-06-13T02:15:13.282Z,23.70
2018-06-13T02:17:42.460Z,23.70
2018-06-13T02:20:11.894Z,23.07
2018-06-13T02:22:41.263Z,22.90
2018-06-13T02:25:10.815Z,22.43
2018-06-13T02:27:40.613Z,22.43
2018-06-13T02:30:09.795Z,22.57
2018-06-13T02:32:41.843Z,20.67
2018-06-13T02:35:11.399Z,21.13
2018-06-13T02:37:40.931Z,20.27
2018-06-13T02:40:10.496Z,19.23
2018-06-13T02:42:39.667Z,19.83
2018-06-13T02:45:08.875Z,18.40
2018-06-13T02:47:38.796Z,17.53
2018-06-13T02:50:07.995Z,18.03
2018-06-13T02:52:37.181Z,16.77
2018-06-13T02:55:06.818Z,16.30
2018-06-13T02:57:36.330Z,15.23
2018-06-13T03:00:06.497Z,15.57
2018-06-13T03:02:35.663Z,14.20
2018-06-13T03:05:04.884Z,14.57
2018-06-13T03:07:34.442Z,14.10
2018-06-13T03:10:03.808Z,13.97
2018-06-13T03:12:33.088Z,13.23
2018-06-13T03:15:03.019Z,12.77
2018-06-13T03:17:32.209Z,12.10
2018-06-13T03:20:01.435Z,12.57
2018-06-13T03:22:30.634Z,12.17
2018-06-13T03:24:59.968Z,11.87
2018-06-13T03:27:29.353Z,10.93
2018-06-13T03:29:59.117Z,11.80
2018-06-13T03:32:28.446Z,10.53
2018-06-13T03:34:57.656Z,10.43
2018-06-13T03:37:26.820Z,10.63
2018-06-13T03:39:56.240Z,10.10
2018-06-13T03:42:25.480Z,10.03
2018-06-13T03:44:54.814Z,10.30
2018-06-13T03:47:23.990Z,10.03
2018-06-13T03:49:53.196Z,11.30
2018-06-13T03:52:22.465Z,10.50
2018-06-13T03:54:51.891Z,11.27
2018-06-13T03:57:21.452Z,12.70
2018-06-13T03:59:50.887Z,13.87
2018-06-13T04:02:20.465Z,14.67
2018-06-13T04:04:50.027Z,13.93
2018-06-13T04:07:19.277Z,15.63
2018-06-13T04:09:48.498Z,15.20
2018-06-13T04:12:17.994Z,17.17
2018-06-13T04:14:47.595Z,17.43
2018-06-13T04:17:16.806Z,18.83
2018-06-13T04:19:46.039Z,18.13
2018-06-13T04:22:15.531Z,18.93
2018-06-13T04:24:44.762Z,18.70
2018-06-13T04:27:13.954Z,18.60
2018-06-13T04:29:43.587Z,19.03
2018-06-13T04:32:12.788Z,19.53
2018-06-13T04:34:42.005Z,23.90
2018-06-13T04:37:12.371Z,20.77
2018-06-13T04:39:41.594Z,23.23
2018-06-13T04:42:11.091Z,21.70
2018-06-13T04:44:40.346Z,21.83
2018-06-13T04:47:09.551Z,22.13
2018-06-13T04:49:38.790Z,21.17
2018-06-13T04:52:07.955Z,21.97
2018-06-13T04:54:37.175Z,20.50
2018-06-13T04:57:06.402Z,20.50
2018-06-13T04:59:35.585Z,19.93
2018-06-13T05:02:05.118Z,19.50
2018-06-13T05:04:34.346Z,19.27
2018-06-13T05:07:03.590Z,21.00
2018-06-13T05:09:32.823Z,19.83
2018-06-13T05:12:02.108Z,18.87
2018-06-13T05:14:31.288Z,19.07
2018-06-13T05:17:00.527Z,20.37
2018-06-13T05:19:29.699Z,19.67
2018-06-13T05:21:58.923Z,21.27
2018-06-13T05:24:28.102Z,20.30
2018-06-13T05:26:58.326Z,21.00
2018-06-13T05:29:27.538Z,22.17
2018-06-13T05:31:57.090Z,21.00
2018-06-13T05:34:26.427Z,20.13
2018-06-13T05:36:55.648Z,21.27
2018-06-13T05:39:24.829Z,20.53
2018-06-13T05:41:54.129Z,20.77
2018-06-13T05:44:23.298Z,20.53
2018-06-13T05:46:53.210Z,20.40
2018-06-13T05:49:22.395Z,21.50
2018-06-13T05:51:51.611Z,22.60
2018-06-13T05:54:21.065Z,23.13
2018-06-13T05:56:50.291Z,22.00
2018-06-13T05:59:19.459Z,23.73
2018-06-13T06:01:48.663Z,21.97
2018-06-13T06:04:17.831Z,21.43
2018-06-13T06:06:47.268Z,22.37
2018-06-13T06:09:16.646Z,21.33
2018-06-13T06:11:46.095Z,21.73
2018-06-13T06:14:15.411Z,21.63
2018-06-13T06:16:45.422Z,20.20
2018-06-13T06:19:14.641Z,21.53
2018-06-13T06:21:44.316Z,20.27
2018-06-13T06:24:13.510Z,20.50
2018-06-13T06:26:43.052Z,20.40
2018-06-13T06:29:12.243Z,21.47
2018-06-13T06:31:41.442Z,20.37
2018-06-13T06:34:10.644Z,20.80
2018-06-13T06:36:40.052Z,20.63
2018-06-13T06:39:09.614Z,20.33
2018-06-13T06:41:38.951Z,19.47
2018-06-13T06:44:08.135Z,18.87
2018-06-13T06:46:37.646Z,20.10
2018-06-13T06:49:06.947Z,17.80
2018-06-13T06:51:36.158Z,18.63
2018-06-13T06:54:05.378Z,17.73
2018-06-13T06:56:34.783Z,16.07
2018-06-13T06:59:03.976Z,16.13
2018-06-13T07:01:33.213Z,14.37
2018-06-13T07:04:02.396Z,14.00
2018-06-13T07:06:31.978Z,12.93
2018-06-13T07:09:01.155Z,12.40
2018-06-13T07:11:30.474Z,13.17
2018-06-13T07:13:59.675Z,12.50
2018-06-13T07:16:28.898Z,11.70
2018-06-13T07:18:58.129Z,12.10
2018-06-13T07:21:27.417Z,10.60
2018-06-13T07:23:56.594Z,10.40
2018-06-13T07:26:25.798Z,10.17
2018-06-13T07:28:55.127Z,10.27
2018-06-13T07:31:24.334Z,9.93
2018-06-13T07:33:53.947Z,9.07
2018-06-13T07:36:23.311Z,9.30
2018-06-13T07:38:52.635Z,9.70
2018-06-13T07:41:21.852Z,9.40
2018-06-13T07:43:51.131Z,8.97
2018-06-13T07:46:20.447Z,8.93
2018-06-13T07:48:49.851Z,7.50
2018-06-13T07:51:19.492Z,5.93
2018-06-13T07:53:48.663Z,6.27
2018-06-13T07:56:17.867Z,6.17
2018-06-13T07:58:47.054Z,5.67
2018-06-13T08:01:16.257Z,5.77
2018-06-13T08:03:45.638Z,6.57
2018-06-13T08:06:14.843Z,6.30
2018-06-13T08:08:44.143Z,6.90
2018-06-13T08:11:13.663Z,6.40
2018-06-13T08:13:43.187Z,6.60
2018-06-13T08:16:12.691Z,6.33
2018-06-13T08:18:41.909Z,6.43
2018-06-13T08:21:11.087Z,6.00
2018-06-13T08:23:40.275Z,4.60
2018-06-13T08:26:09.639Z,4.50
2018-06-13T08:28:39.546Z,4.27
2018-06-13T08:31:08.725Z,4.37
2018-06-13T08:33:37.937Z,3.80
2018-06-13T08:36:07.274Z,3.67
2018-06-13T08:38:36.575Z,3.10
2018-06-13T08:41:05.770Z,3.23
2018-06-13T08:43:34.962Z,3.30
2018-06-13T08:46:04.302Z,2.80
2018-06-13T08:48:34.218Z,2.77
2018-06-13T08:51:03.347Z,2.67
2018-06-13T08:53:32.567Z,2.80
2018-06-13T08:56:01.757Z,2.57
2018-06-13T08:58:30.963Z,1.93
2018-06-13T09:01:00.166Z,2.13
2018-06-13T09:03:29.362Z,1.90
2018-06-13T09:05:58.558Z,1.87
2018-06-13T09:08:29.051Z,2.00
2018-06-13T09:10:58.231Z,1.80
2018-06-13T09:13:27.487Z,1.80
2018-06-13T09:15:56.623Z,1.83
2018-06-13T09:18:26.291Z,2.10
2018-06-13T09:20:55.678Z,1.90
2018-06-13T09:23:25.608Z,2.23
2018-06-13T09:25:54.795Z,2.00
2018-06-13T09:28:24.315Z,1.87
2018-06-13T09:30:54.127Z,2.07
2018-06-13T09:33:23.327Z,2.30
2018-06-13T09:35:52.799Z,1.90
2018-06-13T09:38:22.731Z,2.30
2018-06-13T09:40:51.930Z,2.10
2018-06-13T09:43:21.295Z,1.80
2018-06-13T09:45:50.591Z,2.10
2018-06-13T09:48:19.778Z,2.60
2018-06-13T09:50:49.262Z,2.10
2018-06-13T09:53:18.790Z,1.80
2018-06-13T09:55:47.992Z,2.07
2018-06-13T09:58:17.178Z,2.53
2018-06-13T10:00:51.535Z,2.17
2018-06-13T10:03:20.739Z,2.40
2018-06-13T10:05:49.930Z,2.60
2018-06-13T10:08:19.426Z,2.90
2018-06-13T10:10:48.775Z,3.10
2018-06-13T10:13:17.974Z,3.40
2018-06-13T10:15:47.143Z,3.03
2018-06-13T10:18:17.178Z,3.10
2018-06-13T10:20:46.350Z,3.20
2018-06-13T10:23:15.555Z,3.40
2018-06-13T10:25:44.863Z,3.67
2018-06-13T10:28:14.066Z,4.60
2018-06-13T10:30:43.770Z,4.07
2018-06-13T10:33:12.983Z,4.10
2018-06-13T10:35:42.170Z,5.07
2018-06-13T10:38:11.467Z,4.67
2018-06-13T10:40:40.939Z,4.47
2018-06-13T10:43:10.533Z,4.63
2018-06-13T10:45:40.078Z,4.70
2018-06-13T10:48:09.275Z,4.70
2018-06-13T10:50:38.435Z,4.73
2018-06-13T10:53:07.832Z,4.80
2018-06-13T10:55:37.804Z,4.23
2018-06-13T10:58:06.951Z,5.37
2018-06-13T11:00:36.463Z,4.77
2018-06-13T11:03:05.817Z,4.70
2018-06-13T11:05:34.984Z,5.00
2018-06-13T11:08:04.315Z,4.67
2018-06-13T11:10:33.500Z,5.00
2018-06-13T11:13:02.731Z,4.70
2018-06-13T11:15:31.886Z,4.57
2018-06-13T11:18:01.089Z,4.53
2018-06-13T11:20:30.656Z,4.60
2018-06-13T11:23:00.023Z,5.27
2018-06-13T11:25:29.192Z,5.77
2018-06-13T11:27:58.391Z,5.97
2018-06-13T11:30:27.555Z,5.43
2018-06-13T11:32:56.981Z,6.00
2018-06-13T11:35:26.148Z,5.93
2018-06-13T11:37:55.362Z,6.17
2018-06-13T11:40:24.800Z,6.80
2018-06-13T11:42:54.016Z,6.20
2018-06-13T11:45:23.556Z,6.57
2018-06-13T11:47:52.786Z,5.47
2018-06-13T11:50:21.967Z,5.73
2018-06-13T11:52:51.187Z,5.10
2018-06-13T11:55:20.470Z,5.40
2018-06-13T11:57:51.320Z,5.30
2018-06-13T12:00:20.576Z,5.30
2018-06-13T12:02:50.018Z,5.17
2018-06-13T12:05:19.227Z,5.20
2018-06-13T12:07:48.443Z,4.60
2018-06-13T12:10:17.615Z,5.47
2018-06-13T12:12:47.231Z,5.70
2018-06-13T12:15:16.435Z,4.90
2018-06-13T12:17:45.605Z,5.53
2018-06-13T12:20:14.798Z,5.33
2018-06-13T12:22:43.998Z,4.93
2018-06-13T12:25:13.216Z,4.27
2018-06-13T12:27:42.418Z,3.60
2018-06-13T12:30:11.623Z,3.97
2018-06-13T12:32:40.791Z,4.70
2018-06-13T12:35:10.007Z,4.63
2018-06-13T12:37:39.415Z,4.23
2018-06-13T12:40:08.647Z,4.43
2018-06-13T12:42:37.799Z,4.53
2018-06-13T12:45:07.204Z,5.10
2018-06-13T12:47:36.373Z,5.70
2018-06-13T12:50:06.211Z,6.23
2018-06-13T12:52:35.391Z,5.67
2018-06-13T12:55:05.019Z,5.97
2018-06-13T12:57:34.199Z,5.13
2018-06-13T13:00:03.571Z,5.13
2018-06-13T13:02:32.751Z,4.37
2018-06-13T13:05:01.968Z,4.70
2018-06-13T13:07:31.526Z,5.70
2018-06-13T13:10:00.707Z,6.30
2018-06-13T13:12:30.258Z,6.57
2018-06-13T13:14:59.463Z,6.70
2018-06-13T13:17:28.646Z,7.73
2018-06-13T13:19:57.847Z,7.00
2018-06-13T13:22:27.435Z,6.57
2018-06-13T13:24:56.644Z,7.17
2018-06-13T13:27:25.813Z,7.63
2018-06-13T13:29:55.023Z,7.80
2018-06-13T13:32:24.202Z,8.40
2018-06-13T13:34:53.871Z,9.13
2018-06-13T13:37:23.058Z,10.30
2018-06-13T13:39:52.278Z,10.90
2018-06-13T13:42:21.483Z,10.03
2018-06-13T13:44:50.675Z,10.30
2018-06-13T13:47:19.869Z,10.30
2018-06-13T13:49:49.295Z,9.90
2018-06-13T13:52:18.496Z,10.27
2018-06-13T13:54:48.523Z,9.43
2018-06-13T13:57:17.743Z,8.67
2018-06-13T13:59:46.955Z,8.60
2018-06-13T14:02:16.308Z,8.73
2018-06-13T14:04:45.518Z,8.80
2018-06-13T14:07:15.057Z,7.93
2018-06-13T14:09:44.255Z,7.90
2018-06-13T14:12:13.669Z,7.17
2018-06-13T14:14:42.949Z,7.47
2018-06-13T14:17:12.119Z,7.87
2018-06-13T14:19:41.571Z,7.97
2018-06-13T14:22:10.747Z,7.53
2018-06-13T14:24:39.945Z,8.47
2018-06-13T14:27:09.147Z,8.10
2018-06-13T14:29:38.621Z,7.30
2018-06-13T14:32:07.940Z,7.80
2018-06-13T14:34:37.159Z,8.27
2018-06-13T14:37:06.368Z,8.93
2018-06-13T14:39:36.083Z,8.50
2018-06-13T14:42:05.587Z,8.70
2018-06-13T14:44:34.787Z,7.73
2018-06-13T14:47:04.099Z,7.63
2018-06-13T14:49:33.384Z,6.63
2018-06-13T14:52:02.604Z,6.30
2018-06-13T14:54:32.011Z,5.90
2018-06-13T14:57:01.199Z,6.00
2018-06-13T14:59:30.548Z,6.07
2018-06-13T15:01:59.784Z,6.30
2018-06-13T15:04:34.303Z,6.10
2018-06-13T15:07:05.742Z,6.73
2018-06-13T15:09:35.567Z,6.07
2018-06-13T15:12:05.158Z,5.87
2018-06-13T15:14:34.392Z,6.43
2018-06-13T15:17:04.042Z,6.40
2018-06-13T15:19:33.862Z,6.13
2018-06-13T15:22:03.750Z,6.53
2018-06-13T15:24:33.402Z,6.13
2018-06-13T15:27:02.699Z,5.80
2018-06-13T15:29:32.538Z,5.70
2018-06-13T15:32:01.890Z,5.60
2018-06-13T15:34:31.083Z,6.17
2018-06-13T15:37:00.263Z,10.70
2018-06-13T15:39:29.472Z,27.97
2018-06-13T15:41:58.847Z,8.37
2018-06-13T15:44:28.103Z,8.20
2018-06-13T15:46:57.289Z,8.27
2018-06-13T15:49:26.472Z,8.13
2018-06-13T15:51:55.875Z,7.30
2018-06-13T15:54:25.139Z,7.23
2018-06-13T15:56:54.310Z,8.17
2018-06-13T15:59:23.502Z,7.73
2018-06-13T16:01:53.095Z,8.30
2018-06-13T16:04:22.318Z,6.97
2018-06-13T16:06:51.532Z,7.07
2018-06-13T16:09:20.691Z,6.77
2018-06-13T16:11:49.903Z,6.40
2018-06-13T16:14:19.975Z,6.30
2018-06-13T16:16:49.463Z,6.50
2018-06-13T16:19:18.599Z,6.23
2018-06-13T16:21:48.490Z,9.77
2018-06-13T16:24:17.682Z,12.10
2018-06-13T16:26:47.305Z,7.53
2018-06-13T16:29:16.476Z,5.70
2018-06-13T16:31:45.911Z,5.47
2018-06-13T16:34:15.248Z,5.87
2018-06-13T16:36:44.491Z,5.70
2018-06-13T16:39:14.102Z,5.80
2018-06-13T16:41:43.734Z,5.80
2018-06-13T16:44:13.027Z,5.90
2018-06-13T16:46:42.446Z,5.77
2018-06-13T16:49:11.958Z,7.83
2018-06-13T16:51:57.701Z,13.80
2018-06-13T16:54:38.048Z,5.50
2018-06-13T16:57:09.716Z,5.70
2018-06-13T16:59:38.935Z,5.63
2018-06-13T17:02:08.145Z,5.07
2018-06-13T17:04:37.298Z,4.83
2018-06-13T17:07:06.794Z,4.33
2018-06-13T17:09:35.983Z,4.13
2018-06-13T17:12:05.194Z,4.17
2018-06-13T17:14:34.367Z,3.80
2018-06-13T17:17:03.565Z,4.17
2018-06-13T17:19:32.970Z,3.50
2018-06-13T17:22:03.324Z,4.10
2018-06-13T17:24:33.483Z,3.37
2018-06-13T17:27:02.780Z,3.23
2018-06-13T17:29:31.972Z,3.30
2018-06-13T17:32:01.176Z,3.90
2018-06-13T17:34:30.382Z,3.60
2018-06-13T17:36:59.854Z,3.90
2018-06-13T17:39:29.110Z,3.50
2018-06-13T17:41:58.299Z,3.53
2018-06-13T17:44:28.242Z,3.60
2018-06-13T17:46:57.642Z,3.53
2018-06-13T17:49:27.496Z,3.70
2018-06-13T17:53:26.139Z,3.70
2018-06-13T17:55:55.343Z,4.00
2018-06-13T17:58:24.798Z,3.50
2018-06-13T18:00:54.413Z,3.80
2018-06-13T18:03:23.827Z,3.67
2018-06-13T18:05:53.132Z,3.00
2018-06-13T18:08:22.527Z,3.43
2018-06-13T18:10:52.933Z,3.47
2018-06-13T18:13:22.534Z,3.37
2018-06-13T18:15:51.865Z,3.53
2018-06-13T18:18:21.351Z,3.17
2018-06-13T18:20:50.898Z,3.80
2018-06-13T18:23:20.166Z,3.73
2018-06-13T18:25:49.402Z,3.80
2018-06-13T18:28:18.603Z,3.67
2018-06-13T18:30:48.174Z,3.67
2018-06-13T18:33:17.407Z,3.13
2018-06-13T18:35:46.969Z,3.40
2018-06-13T18:38:16.183Z,3.23
2018-06-13T18:40:45.379Z,3.30
2018-06-13T18:43:14.610Z,3.40
2018-06-13T18:45:44.282Z,3.70
2018-06-13T18:48:13.889Z,3.40
2018-06-13T18:50:43.191Z,3.33
2018-06-13T18:53:13.412Z,3.37
2018-06-13T18:55:42.633Z,3.37
2018-06-13T18:58:12.236Z,3.37
2018-06-13T19:00:41.692Z,3.20
2018-06-13T19:03:10.890Z,3.07
2018-06-13T19:05:40.140Z,3.30
2018-06-13T19:08:09.364Z,3.33
2018-06-13T19:10:38.583Z,3.80
2018-06-13T19:13:08.362Z,3.70
2018-06-13T19:15:37.551Z,3.17
2018-06-13T19:18:07.651Z,3.40
2018-06-13T19:20:36.837Z,3.40
2018-06-13T19:23:05.772Z,3.70
2018-06-13T19:25:34.995Z,4.30
2018-06-13T19:28:04.490Z,4.30
2018-06-13T19:30:33.654Z,3.90
2018-06-13T19:33:02.839Z,3.57
2018-06-13T19:35:32.255Z,3.60
2018-06-13T19:38:01.455Z,3.90
2018-06-13T19:40:30.647Z,3.87
2018-06-13T19:42:59.945Z,3.57
2018-06-13T19:45:29.439Z,4.00
2018-06-13T19:48:04.310Z,3.70
2018-06-13T19:50:33.487Z,4.07
2018-06-13T19:53:08.047Z,3.73
2018-06-13T19:55:42.909Z,4.30
2018-06-13T19:58:12.121Z,4.37
2018-06-13T20:00:41.342Z,3.87
2018-06-13T20:03:15.835Z,4.07
2018-06-13T20:05:45.055Z,4.10
2018-06-13T20:08:14.254Z,4.03
2018-06-13T20:10:43.735Z,4.07
2018-06-13T20:13:18.122Z,4.07
2018-06-13T20:15:52.863Z,4.27
2018-06-13T20:18:27.355Z,4.40
2018-06-13T20:20:56.523Z,4.20
2018-06-13T20:23:25.886Z,5.00
2018-06-13T20:26:00.399Z,4.47
2018-06-13T20:28:35.167Z,4.00
2018-06-13T20:31:09.666Z,3.90
2018-06-13T20:33:38.867Z,4.30
2018-06-13T20:36:08.071Z,3.50
2018-06-13T20:38:37.762Z,3.70
2018-06-13T20:41:07.226Z,4.10
2018-06-13T20:43:36.455Z,3.80
2018-06-13T20:46:06.314Z,3.80
2018-06-13T20:48:35.507Z,3.83
2018-06-13T20:51:04.803Z,4.00
2018-06-13T20:53:34.660Z,3.90
2018-06-13T20:56:04.281Z,4.20
2018-06-13T20:58:33.503Z,48.43
2018-06-13T21:01:02.808Z,26.47
2018-06-13T21:03:31.987Z,6.67
2018-06-13T21:06:01.204Z,4.60
2018-06-13T21:08:30.371Z,4.80
2018-06-13T21:10:59.569Z,4.40
2018-06-13T21:13:28.734Z,4.33
2018-06-13T21:15:57.934Z,4.67
2018-06-13T21:18:27.259Z,5.63
2018-06-13T21:20:56.465Z,4.27
2018-06-13T21:23:25.630Z,5.90
2018-06-13T21:25:54.875Z,6.47
2018-06-13T21:28:24.247Z,5.67
2018-06-13T21:30:53.589Z,5.03
2018-06-13T21:33:22.763Z,4.50
2018-06-13T21:35:51.964Z,4.90
2018-06-13T21:38:21.130Z,4.30
2018-06-13T21:40:50.362Z,4.13
2018-06-13T21:43:19.867Z,4.40
2018-06-13T21:45:49.102Z,5.10
2018-06-13T21:48:18.711Z,4.70
2018-06-13T21:50:47.919Z,4.47
2018-06-13T21:53:17.263Z,4.70
2018-06-13T21:55:46.699Z,4.60
2018-06-13T21:58:15.878Z,5.30
2018-06-13T22:00:45.073Z,5.20
2018-06-13T22:03:14.231Z,5.50
2018-06-13T22:05:43.448Z,4.97
2018-06-13T22:08:13.167Z,5.33
2018-06-13T22:10:42.342Z,5.03
2018-06-13T22:13:11.515Z,5.20
2018-06-13T22:15:40.699Z,5.27
2018-06-13T22:18:09.862Z,5.40
2018-06-13T22:20:39.231Z,6.00
2018-06-13T22:23:08.423Z,5.60
2018-06-13T22:25:37.648Z,4.93
2018-06-13T22:28:06.839Z,5.33
2018-06-13T22:30:36.006Z,4.97
2018-06-13T22:33:05.198Z,5.10
2018-06-13T22:35:34.385Z,5.07
2018-06-13T22:38:03.554Z,5.40
2018-06-13T22:40:32.762Z,4.97
2018-06-13T22:43:02.020Z,4.80
2018-06-13T22:45:31.183Z,4.90
2018-06-13T22:48:00.364Z,5.23
2018-06-13T22:50:29.540Z,5.07
2018-06-13T22:52:58.818Z,5.50
2018-06-13T22:55:27.998Z,5.40
2018-06-13T22:57:57.266Z,5.60
2018-06-13T23:00:37.202Z,6.13
2018-06-13T23:03:06.312Z,6.90
2018-06-13T23:05:35.486Z,5.60
2018-06-13T23:08:04.726Z,5.67
2018-06-13T23:10:33.896Z,6.10
2018-06-13T23:13:03.563Z,5.53
2018-06-13T23:15:32.851Z,5.63
2018-06-13T23:18:02.067Z,6.40
2018-06-13T23:20:31.242Z,5.93
2018-06-13T23:23:00.511Z,5.40
2018-06-13T23:25:29.684Z,5.60
2018-06-13T23:27:59.059Z,7.53
2018-06-13T23:30:28.431Z,6.53
2018-06-13T23:32:57.660Z,5.70
2018-06-13T23:35:26.779Z,6.00
2018-06-13T23:37:56.450Z,6.63
2018-06-13T23:40:25.762Z,6.37
2018-06-13T23:42:55.415Z,6.93
2018-06-13T23:45:24.847Z,6.30
2018-06-13T23:47:54.014Z,6.20
2018-06-13T23:50:23.210Z,5.80
2018-06-13T23:52:52.357Z,6.33
2018-06-13T23:55:21.523Z,6.80
2018-06-13T23:57:50.705Z,7.00
